Aérodrome :
LOGIN :

S'inscrire | Disclaimer

   EN    FR    IT 

 










Légende :    VFR   VFR Marginal   IFR   IFR Intensif   IFR Très Intensif
Visi : 
Plafond : 
>= 8 km
>= 3000ft
5 à 8 km
1000 à 3000 ft
1500m à 5 km
500 à 1000 ft
800 à 1500m
200 à 500 ft
< 800m
< 200 ft
Symboles :   Orages  Brouillard  Fortes neiges  Fortes précipitations  Vent > 20 kt
SIGMETs :   Divers  Orages  Givrage  Turbulence  Onde Orograph.  Cendres Volcan.






- Altitude de l'aérodrome : 14 ft
- Code IATA : BRE


EDDW - Bremen Neuenland

DERNIER METAR :
  • 191620Z AUTO 32004KT 280V060 CAVOK 27/12 Q1012 NOSIG

METARs EXPIRÉS :
  • 191550Z AUTO 31005KT 270V010 CAVOK 26/11 Q1012 NOSIG
  • 191520Z AUTO 30010KT 280V340 CAVOK 27/11 Q1012 NOSIG
  • 191450Z AUTO 29011KT CAVOK 27/12 Q1012 NOSIG
  • 191420Z AUTO 29012KT CAVOK 26/11 Q1012 NOSIG
  • 191350Z AUTO 32008KT 260V010 CAVOK 26/11 Q1012 NOSIG
  • 191320Z AUTO 29008KT 250V330 CAVOK 26/11 Q1012 NOSIG

TAF TAF EDDW
Valide du 19 à 12h jusqu'au 20 à 12h UTC


191100Z 1912/2012 31005KT CAVOK
BECMG 1923/2001 BKN012
TEMPO 2000/2006 4500 SHRA BKN008 BKN015CB
PROB30
TEMPO 2001/2006 2500 SHRA BKN004
BECMG 2006/2009 BKN020



MET'MAP, la Météo Aéronautique d'un coup d'oeil ! - Copyright ORBIFLY Décembre 2007 - Disclaimer

ORBIFLY MET'MAP TEAM :

Programmation & Développement : Alexandra Zaïnal
Sur une idée originale de : Baudouin d'Aumeries
Soutien technique & logistique : Manuel Goepfert
Assistance : Marc-Olivier Méhu




SOURCES & CREDITS :

   NOAA